createdAt,value
2016-08-25T00:00:15.912Z,1012.38
2016-08-25T00:01:15.918Z,1012.38
2016-08-25T00:02:15.976Z,1012.4
2016-08-25T00:03:15.933Z,1012.37
2016-08-25T00:04:15.942Z,1012.38
2016-08-25T00:05:15.950Z,1012.38
2016-08-25T00:06:15.959Z,1012.4
2016-08-25T00:07:15.964Z,1012.38
2016-08-25T00:08:15.972Z,1012.39
2016-08-25T00:09:15.982Z,1012.39
2016-08-25T00:10:15.991Z,1012.39
2016-08-25T00:11:15.998Z,1012.38
2016-08-25T00:12:16.005Z,1012.36
2016-08-25T00:13:16.013Z,1012.36
2016-08-25T00:14:16.119Z,1012.38
2016-08-25T00:15:16.028Z,1012.39
2016-08-25T00:16:16.036Z,1012.36
2016-08-25T00:17:16.044Z,1012.33
2016-08-25T00:18:16.050Z,1012.35
2016-08-25T00:19:16.058Z,1012.34
2016-08-25T00:20:16.068Z,1012.3
2016-08-25T00:21:16.076Z,1012.31
2016-08-25T00:22:16.082Z,1012.34
2016-08-25T00:23:16.090Z,1012.33
2016-08-25T00:24:16.098Z,1012.34
2016-08-25T00:25:16.106Z,1012.3
2016-08-25T00:26:16.113Z,1012.34
2016-08-25T00:27:16.123Z,1012.32
2016-08-25T00:28:16.132Z,1012.35
2016-08-25T00:29:16.139Z,1012.37
2016-08-25T00:30:16.146Z,1012.35
2016-08-25T00:31:16.169Z,1012.34
2016-08-25T00:32:16.163Z,1012.36
2016-08-25T00:33:16.170Z,1012.35
2016-08-25T00:34:16.179Z,1012.34
2016-08-25T00:35:16.187Z,1012.38
2016-08-25T00:36:16.196Z,1012.36
2016-08-25T00:37:16.203Z,1012.38
2016-08-25T00:38:16.210Z,1012.38
2016-08-25T00:39:16.219Z,1012.35
2016-08-25T00:40:16.226Z,1012.36
2016-08-25T00:41:16.247Z,1012.39
2016-08-25T00:42:16.242Z,1012.37
2016-08-25T00:43:16.249Z,1012.38
2016-08-25T00:44:16.258Z,1012.4
2016-08-25T00:45:16.267Z,1012.39
2016-08-25T00:46:16.273Z,1012.4
2016-08-25T00:47:16.282Z,1012.38
2016-08-25T00:48:16.339Z,1012.39
2016-08-25T00:49:16.296Z,1012.39
2016-08-25T00:50:16.306Z,1012.39
2016-08-25T00:51:16.314Z,1012.37
2016-08-25T00:52:16.323Z,1012.37
2016-08-25T00:53:16.329Z,1012.37
2016-08-25T00:54:16.336Z,1012.37
2016-08-25T00:55:16.343Z,1012.36
2016-08-25T00:56:16.353Z,1012.38
2016-08-25T00:57:16.360Z,1012.37
2016-08-25T00:58:16.366Z,1012.36
2016-08-25T00:59:16.376Z,1012.34
2016-08-25T01:00:17.136Z,1012.39
2016-08-25T01:01:16.408Z,1012.33
2016-08-25T01:02:16.400Z,1012.34
2016-08-25T01:03:16.410Z,1012.36
2016-08-25T01:04:16.566Z,1012.35
2016-08-25T01:05:16.424Z,1012.37
2016-08-25T01:06:16.432Z,1012.38
2016-08-25T01:07:16.441Z,1012.35
2016-08-25T01:08:16.445Z,1012.36
2016-08-25T01:09:16.454Z,1012.34
2016-08-25T01:10:16.464Z,1012.36
2016-08-25T01:11:16.471Z,1012.36
2016-08-25T01:12:16.480Z,1012.37
2016-08-25T01:13:16.487Z,1012.38
2016-08-25T01:14:16.493Z,1012.36
2016-08-25T01:15:16.503Z,1012.41
2016-08-25T01:16:16.508Z,1012.37
2016-08-25T01:17:16.517Z,1012.36
2016-08-25T01:18:16.526Z,1012.38
2016-08-25T01:19:16.534Z,1012.38
2016-08-25T01:20:16.546Z,1012.39
2016-08-25T01:21:16.551Z,1012.4
2016-08-25T01:22:16.559Z,1012.35
2016-08-25T01:23:16.568Z,1012.37
2016-08-25T01:24:16.574Z,1012.4
2016-08-25T01:25:16.582Z,1012.36
2016-08-25T01:26:16.591Z,1012.38
2016-08-25T01:27:16.597Z,1012.41
2016-08-25T01:28:16.606Z,1012.4
2016-08-25T01:29:16.614Z,1012.38
2016-08-25T01:30:16.622Z,1012.43
2016-08-25T01:31:16.637Z,1012.38
2016-08-25T01:32:16.638Z,1012.43
2016-08-25T01:33:16.646Z,1012.41
2016-08-25T01:34:16.653Z,1012.44
2016-08-25T01:35:16.660Z,1012.4
2016-08-25T01:36:16.668Z,1012.45
2016-08-25T01:37:16.879Z,1012.41
2016-08-25T01:38:16.685Z,1012.45
2016-08-25T01:39:16.693Z,1012.41
2016-08-25T01:40:16.701Z,1012.4
2016-08-25T01:41:16.709Z,1012.38
2016-08-25T01:42:16.716Z,1012.43
2016-08-25T01:43:16.723Z,1012.43
2016-08-25T01:44:16.734Z,1012.43
2016-08-25T01:45:16.742Z,1012.43
2016-08-25T01:46:17.749Z,1012.44
2016-08-25T01:47:16.756Z,1012.42
2016-08-25T01:48:16.763Z,1012.38
2016-08-25T01:49:16.770Z,1012.4
2016-08-25T01:50:16.780Z,1012.38
2016-08-25T01:51:16.787Z,1012.41
2016-08-25T01:52:16.795Z,1012.42
2016-08-25T01:53:16.803Z,1012.44
2016-08-25T01:54:16.812Z,1012.42
2016-08-25T01:55:16.821Z,1012.48
2016-08-25T01:56:16.829Z,1012.51
2016-08-25T01:57:16.835Z,1012.53
2016-08-25T01:58:16.843Z,1012.52
2016-08-25T01:59:16.851Z,1012.55
2016-08-25T02:00:16.858Z,1012.55
2016-08-25T02:01:16.866Z,1012.55
2016-08-25T02:02:16.875Z,1012.54
2016-08-25T02:03:16.884Z,1012.55
2016-08-25T02:04:16.890Z,1012.52
2016-08-25T02:05:16.948Z,1012.55
2016-08-25T02:06:16.906Z,1012.51
2016-08-25T02:07:16.914Z,1012.52
2016-08-25T02:08:17.673Z,1012.53
2016-08-25T02:09:16.931Z,1012.52
2016-08-25T02:10:16.937Z,1012.57
2016-08-25T02:11:16.945Z,1012.53
2016-08-25T02:12:16.955Z,1012.5
2016-08-25T02:13:16.962Z,1012.51
2016-08-25T02:14:16.971Z,1012.5
2016-08-25T02:15:16.977Z,1012.52
2016-08-25T02:16:16.987Z,1012.54
2016-08-25T02:17:16.994Z,1012.5
2016-08-25T02:18:17.000Z,1012.5
2016-08-25T02:19:17.008Z,1012.51
2016-08-25T02:20:17.018Z,1012.49
2016-08-25T02:21:17.025Z,1012.48
2016-08-25T02:22:17.034Z,1012.47
2016-08-25T02:23:17.942Z,1012.46
2016-08-25T02:24:17.051Z,1012.49
2016-08-25T02:25:17.056Z,1012.43
2016-08-25T02:26:17.063Z,1012.45
2016-08-25T02:27:17.074Z,1012.45
2016-08-25T02:28:17.082Z,1012.41
2016-08-25T02:29:17.087Z,1012.39
2016-08-25T02:30:17.097Z,1012.39
2016-08-25T02:31:17.104Z,1012.42
2016-08-25T02:32:17.112Z,1012.36
2016-08-25T02:33:17.120Z,1012.36
2016-08-25T02:34:17.132Z,1012.37
2016-08-25T02:35:17.136Z,1012.39
2016-08-25T02:36:17.143Z,1012.35
2016-08-25T02:37:17.152Z,1012.35
2016-08-25T02:38:17.160Z,1012.38
2016-08-25T02:39:17.167Z,1012.36
2016-08-25T02:40:17.174Z,1012.4
2016-08-25T02:41:17.183Z,1012.37
2016-08-25T02:42:17.191Z,1012.41
2016-08-25T02:43:17.200Z,1012.41
2016-08-25T02:44:17.207Z,1012.44
2016-08-25T02:45:17.366Z,1012.45
2016-08-25T02:46:17.222Z,1012.45
2016-08-25T02:47:17.231Z,1012.49
2016-08-25T02:48:17.238Z,1012.45
2016-08-25T02:49:17.246Z,1012.47
2016-08-25T02:50:17.254Z,1012.44
2016-08-25T02:51:17.259Z,1012.47
2016-08-25T02:52:17.321Z,1012.47
2016-08-25T02:53:17.279Z,1012.45
2016-08-25T02:54:17.286Z,1012.46
2016-08-25T02:55:17.292Z,1012.42
2016-08-25T02:56:17.300Z,1012.39
2016-08-25T02:57:17.309Z,1012.38
2016-08-25T02:58:17.317Z,1012.41
2016-08-25T02:59:17.323Z,1012.38
2016-08-25T03:00:17.332Z,1012.37
2016-08-25T03:01:17.341Z,1012.36
2016-08-25T03:02:17.347Z,1012.36
2016-08-25T03:03:17.355Z,1012.35
2016-08-25T03:04:17.363Z,1012.31
2016-08-25T03:05:17.422Z,1012.34
2016-08-25T03:06:17.379Z,1012.32
2016-08-25T03:07:17.386Z,1012.29
2016-08-25T03:08:17.394Z,1012.26
2016-08-25T03:09:18.534Z,1012.26
2016-08-25T03:10:17.410Z,1012.27
2016-08-25T03:11:17.418Z,1012.26
2016-08-25T03:12:17.427Z,1012.25
2016-08-25T03:13:17.437Z,1012.22
2016-08-25T03:14:17.442Z,1012.22
2016-08-25T03:15:17.449Z,1012.19
2016-08-25T03:16:17.458Z,1012.24
2016-08-25T03:17:17.465Z,1012.22
2016-08-25T03:18:17.473Z,1012.22
2016-08-25T03:19:17.481Z,1012.21
2016-08-25T03:20:17.490Z,1012.19
2016-08-25T03:21:17.497Z,1012.2
2016-08-25T03:22:17.505Z,1012.18
2016-08-25T03:23:17.513Z,1012.18
2016-08-25T03:24:17.524Z,1012.2
2016-08-25T03:25:17.529Z,1012.19
2016-08-25T03:26:17.536Z,1012.17
2016-08-25T03:27:17.544Z,1012.14
2016-08-25T03:28:17.549Z,1012.11
2016-08-25T03:29:17.565Z,1012.09
2016-08-25T03:30:17.567Z,1012.09
2016-08-25T03:31:18.431Z,1012.07
2016-08-25T03:32:17.583Z,1012.04
2016-08-25T03:33:17.590Z,1012.04
2016-08-25T03:34:17.598Z,1011.99
2016-08-25T03:35:17.606Z,1011.99
2016-08-25T03:36:17.614Z,1011.99
2016-08-25T03:37:17.623Z,1011.99
2016-08-25T03:38:17.630Z,1011.97
2016-08-25T03:39:17.636Z,1011.92
2016-08-25T03:40:17.644Z,1011.94
2016-08-25T03:41:17.660Z,1011.92
2016-08-25T03:42:17.662Z,1011.89
2016-08-25T03:43:17.669Z,1011.89
2016-08-25T03:44:17.676Z,1011.86
2016-08-25T03:45:17.684Z,1011.85
2016-08-25T03:46:17.692Z,1011.85
2016-08-25T03:47:17.701Z,1011.85
2016-08-25T03:48:17.709Z,1011.84
2016-08-25T03:49:17.717Z,1011.88
2016-08-25T03:50:17.724Z,1011.84
2016-08-25T03:51:17.783Z,1011.82
2016-08-25T03:52:17.740Z,1011.83
2016-08-25T03:53:17.896Z,1011.84
2016-08-25T03:54:17.754Z,1011.84
2016-08-25T03:55:17.812Z,1011.8
2016-08-25T03:56:17.770Z,1011.88
2016-08-25T03:57:17.778Z,1011.89
2016-08-25T03:58:17.786Z,1011.92
2016-08-25T03:59:17.794Z,1011.88
2016-08-25T04:00:17.803Z,1011.87
2016-08-25T04:01:17.810Z,1011.9
2016-08-25T04:02:17.818Z,1011.9
2016-08-25T04:03:17.824Z,1011.92
2016-08-25T04:04:17.832Z,1011.9
2016-08-25T04:05:17.839Z,1011.88
2016-08-25T04:06:17.848Z,1011.89
2016-08-25T04:07:17.857Z,1011.86
2016-08-25T04:08:17.864Z,1011.89
2016-08-25T04:09:17.872Z,1011.94
2016-08-25T04:10:17.881Z,1011.92
2016-08-25T04:11:17.888Z,1011.94
2016-08-25T04:12:17.895Z,1011.97
2016-08-25T04:13:17.903Z,1011.98
2016-08-25T04:14:17.910Z,1011.99
2016-08-25T04:15:17.919Z,1011.99
2016-08-25T04:16:17.927Z,1012.04
2016-08-25T04:17:18.986Z,1012.03
2016-08-25T04:18:17.942Z,1012.06
2016-08-25T04:19:17.951Z,1012.02
2016-08-25T04:20:17.958Z,1012.06
2016-08-25T04:21:17.965Z,1012.04
2016-08-25T04:22:17.974Z,1012.05
2016-08-25T04:23:17.981Z,1012.01
2016-08-25T04:24:17.989Z,1012.05
2016-08-25T04:25:18.002Z,1012.02
2016-08-25T04:26:18.004Z,1012.04
2016-08-25T04:27:18.012Z,1012
2016-08-25T04:28:18.020Z,1012
2016-08-25T04:29:18.028Z,1011.97
2016-08-25T04:30:18.035Z,1012.01
2016-08-25T04:31:18.041Z,1011.97
2016-08-25T04:32:18.051Z,1012.01
2016-08-25T04:33:18.059Z,1011.94
2016-08-25T04:34:18.064Z,1011.97
2016-08-25T04:35:18.072Z,1011.96
2016-08-25T04:36:18.081Z,1011.95
2016-08-25T04:37:18.089Z,1011.93
2016-08-25T04:38:18.096Z,1011.92
2016-08-25T04:39:18.757Z,1011.94
2016-08-25T04:40:18.113Z,1011.96
2016-08-25T04:41:18.121Z,1011.94
2016-08-25T04:42:18.127Z,1011.93
2016-08-25T04:43:18.136Z,1011.93
2016-08-25T04:44:18.145Z,1011.93
2016-08-25T04:45:18.152Z,1011.93
2016-08-25T04:46:18.158Z,1011.95
2016-08-25T04:47:18.168Z,1011.89
2016-08-25T04:48:18.176Z,1011.9
2016-08-25T04:49:18.184Z,1011.94
2016-08-25T04:50:18.195Z,1011.94
2016-08-25T04:51:18.199Z,1011.93
2016-08-25T04:52:18.206Z,1011.9
2016-08-25T04:53:18.215Z,1011.9
2016-08-25T04:54:18.222Z,1011.89
2016-08-25T04:55:18.230Z,1011.89
2016-08-25T04:56:18.237Z,1011.9
2016-08-25T04:57:18.244Z,1011.88
2016-08-25T04:58:18.253Z,1011.88
2016-08-25T04:59:18.260Z,1011.86
2016-08-25T05:00:18.268Z,1011.87
2016-08-25T05:01:18.528Z,1011.86
2016-08-25T05:02:18.285Z,1011.87
2016-08-25T05:03:18.291Z,1011.87
2016-08-25T05:04:18.301Z,1011.88
2016-08-25T05:05:18.309Z,1011.87
2016-08-25T05:06:18.314Z,1011.9
2016-08-25T05:07:18.323Z,1011.89
2016-08-25T05:08:18.331Z,1011.94
2016-08-25T05:09:18.339Z,1011.95
2016-08-25T05:10:18.396Z,1011.93
2016-08-25T05:11:18.354Z,1011.92
2016-08-25T05:12:18.362Z,1011.92
2016-08-25T05:13:18.371Z,1011.93
2016-08-25T05:14:18.378Z,1011.88
2016-08-25T05:15:18.386Z,1011.91
2016-08-25T05:16:18.395Z,1011.92
2016-08-25T05:17:18.403Z,1011.91
2016-08-25T05:18:18.416Z,1011.88
2016-08-25T05:19:18.418Z,1011.91
2016-08-25T05:20:18.426Z,1011.93
2016-08-25T05:21:18.439Z,1011.92
2016-08-25T05:22:18.442Z,1012
2016-08-25T05:23:18.449Z,1012.1
2016-08-25T05:24:18.458Z,1012.08
2016-08-25T05:25:19.215Z,1011.97
2016-08-25T05:26:18.474Z,1011.96
2016-08-25T05:27:18.482Z,1011.96
2016-08-25T05:28:18.490Z,1012.02
2016-08-25T05:29:18.498Z,1012.04
2016-08-25T05:30:18.507Z,1011.94
2016-08-25T05:31:18.515Z,1011.9
2016-08-25T05:32:18.523Z,1011.85
2016-08-25T05:33:18.531Z,1011.86
2016-08-25T05:34:18.540Z,1011.88
2016-08-25T05:35:18.550Z,1011.84
2016-08-25T05:36:18.556Z,1011.8
2016-08-25T05:37:18.565Z,1011.81
2016-08-25T05:38:18.574Z,1011.85
2016-08-25T05:39:18.582Z,1011.83
2016-08-25T05:40:18.590Z,1011.87
2016-08-25T05:41:18.604Z,1011.85
2016-08-25T05:42:18.606Z,1011.89
2016-08-25T05:43:18.615Z,1011.92
2016-08-25T05:44:18.624Z,1011.93
2016-08-25T05:45:18.632Z,1011.96
2016-08-25T05:46:18.641Z,1011.97
2016-08-25T05:47:18.801Z,1011.97
2016-08-25T05:48:18.655Z,1011.95
2016-08-25T05:49:18.664Z,1011.96
2016-08-25T05:50:18.672Z,1011.93
2016-08-25T05:51:18.679Z,1011.94
2016-08-25T05:52:18.690Z,1011.89
2016-08-25T05:53:18.747Z,1011.91
2016-08-25T05:54:18.702Z,1011.88
2016-08-25T05:55:18.712Z,1011.85
2016-08-25T05:56:18.720Z,1011.85
2016-08-25T05:57:18.727Z,1011.81
2016-08-25T05:58:18.737Z,1011.81
2016-08-25T05:59:18.743Z,1011.8
2016-08-25T06:00:18.752Z,1011.82
2016-08-25T06:01:18.760Z,1011.81
2016-08-25T06:02:18.769Z,1011.84
2016-08-25T06:03:18.778Z,1011.79
2016-08-25T06:04:18.784Z,1011.81
2016-08-25T06:05:18.793Z,1011.82
2016-08-25T06:06:18.801Z,1011.86
2016-08-25T06:07:18.809Z,1011.86
2016-08-25T06:08:18.817Z,1011.85
2016-08-25T06:09:18.824Z,1011.89
2016-08-25T06:10:18.833Z,1011.87
2016-08-25T06:11:18.841Z,1011.88
2016-08-25T06:12:18.849Z,1011.91
2016-08-25T06:13:18.867Z,1011.9
2016-08-25T06:14:18.868Z,1011.91
2016-08-25T06:15:18.873Z,1011.93
2016-08-25T06:16:18.879Z,1011.9
2016-08-25T06:17:18.889Z,1011.97
2016-08-25T06:18:18.897Z,1011.94
2016-08-25T06:19:18.905Z,1011.89
2016-08-25T06:20:18.913Z,1011.89
2016-08-25T06:21:18.921Z,1011.97
2016-08-25T06:22:18.928Z,1012.1
2016-08-25T06:23:18.935Z,1012.04
2016-08-25T06:24:18.945Z,1012
2016-08-25T06:25:18.953Z,1012.04
2016-08-25T06:26:18.963Z,1012.07
2016-08-25T06:27:18.969Z,1011.96
2016-08-25T06:28:19.029Z,1011.89
2016-08-25T06:29:18.988Z,1011.96
2016-08-25T06:30:18.995Z,1012.12
2016-08-25T06:31:19.004Z,1012.34
2016-08-25T06:32:19.012Z,1012.66
2016-08-25T06:33:19.622Z,1012.53
2016-08-25T06:34:19.032Z,1012.34
2016-08-25T06:35:19.046Z,1012.16
2016-08-25T06:36:19.049Z,1012.28
2016-08-25T06:37:19.058Z,1012.66
2016-08-25T06:38:19.068Z,1013.09
2016-08-25T06:39:19.075Z,1013.12
2016-08-25T06:40:19.087Z,1013.36
2016-08-25T06:41:19.099Z,1013.56
2016-08-25T06:42:19.106Z,1013.61
2016-08-25T06:43:19.118Z,1013.69
2016-08-25T06:44:19.128Z,1013.73
2016-08-25T06:45:19.139Z,1013.73
2016-08-25T06:46:19.151Z,1013.79
2016-08-25T06:47:19.161Z,1013.79
2016-08-25T06:48:19.172Z,1013.8
2016-08-25T06:49:19.184Z,1013.83
2016-08-25T06:50:19.195Z,1013.81
2016-08-25T06:51:19.205Z,1013.9
2016-08-25T06:52:19.220Z,1013.9
2016-08-25T06:53:19.282Z,1013.82
2016-08-25T06:54:19.243Z,1013.82
2016-08-25T06:55:19.306Z,1013.91
2016-08-25T06:56:19.265Z,1013.94
2016-08-25T06:57:19.278Z,1013.89
2016-08-25T06:58:19.291Z,1013.93
2016-08-25T06:59:19.303Z,1013.84
2016-08-25T07:00:19.313Z,1013.79
2016-08-25T07:01:19.325Z,1013.72
2016-08-25T07:02:19.339Z,1013.68
2016-08-25T07:03:19.349Z,1013.63
2016-08-25T07:04:19.362Z,1013.61
2016-08-25T07:05:19.375Z,1013.17
2016-08-25T07:06:19.386Z,1012.41
2016-08-25T07:07:19.397Z,1011.95
2016-08-25T07:08:19.408Z,1011.95
2016-08-25T07:09:19.419Z,1011.93
2016-08-25T07:10:19.633Z,1011.91
2016-08-25T07:11:19.442Z,1011.9
2016-08-25T07:12:19.451Z,1011.87
2016-08-25T07:13:19.463Z,1011.88
2016-08-25T07:14:19.522Z,1011.84
2016-08-25T07:15:19.481Z,1011.83
2016-08-25T07:16:19.492Z,1011.87
2016-08-25T07:17:19.503Z,1011.87
2016-08-25T07:18:19.510Z,1011.85
2016-08-25T07:19:20.644Z,1011.87
2016-08-25T07:20:19.529Z,1011.8
2016-08-25T07:21:19.540Z,1011.84
2016-08-25T07:22:19.550Z,1011.81
2016-08-25T07:23:19.560Z,1011.8
2016-08-25T07:24:19.567Z,1011.82
2016-08-25T07:25:19.576Z,1011.78
2016-08-25T07:26:19.587Z,1011.75
2016-08-25T07:27:19.596Z,1011.71
2016-08-25T07:28:19.606Z,1011.72
2016-08-25T07:29:19.614Z,1011.73
2016-08-25T07:30:19.623Z,1011.68
2016-08-25T07:31:19.633Z,1011.67
2016-08-25T07:32:19.642Z,1011.65
2016-08-25T07:33:19.650Z,1011.59
2016-08-25T07:34:19.658Z,1011.62
2016-08-25T07:35:19.669Z,1011.59
2016-08-25T07:36:19.676Z,1011.62
2016-08-25T07:37:19.685Z,1011.62
2016-08-25T07:38:19.696Z,1011.57
2016-08-25T07:39:19.705Z,1011.56
2016-08-25T07:40:19.716Z,1011.57
2016-08-25T07:41:20.823Z,1011.55
2016-08-25T07:42:19.731Z,1011.58
2016-08-25T07:43:19.842Z,1011.51
2016-08-25T07:44:19.750Z,1011.47
2016-08-25T07:45:19.756Z,1011.53
2016-08-25T07:46:19.765Z,1011.55
2016-08-25T07:47:19.773Z,1011.56
2016-08-25T07:48:19.782Z,1011.55
2016-08-25T07:49:19.792Z,1011.61
2016-08-25T07:50:19.814Z,1011.53
2016-08-25T07:51:19.857Z,1011.56
2016-08-25T07:52:19.818Z,1011.59
2016-08-25T07:53:19.877Z,1011.55
2016-08-25T07:54:19.837Z,1011.61
2016-08-25T07:55:19.854Z,1011.62
2016-08-25T07:56:20.653Z,1011.55
2016-08-25T07:57:19.862Z,1011.61
2016-08-25T07:58:19.870Z,1011.59
2016-08-25T07:59:19.877Z,1011.61
2016-08-25T08:00:19.889Z,1011.56
2016-08-25T08:01:19.898Z,1011.5
2016-08-25T08:02:19.910Z,1011.55
2016-08-25T08:03:19.914Z,1011.53
2016-08-25T08:04:19.924Z,1011.56
2016-08-25T08:05:19.930Z,1011.55
2016-08-25T08:06:19.940Z,1011.54
2016-08-25T08:07:19.948Z,1011.55
2016-08-25T08:08:20.006Z,1011.49
2016-08-25T08:09:19.964Z,1011.49
2016-08-25T08:10:19.979Z,1011.55
2016-08-25T08:11:19.983Z,1011.49
2016-08-25T08:12:19.993Z,1011.49
2016-08-25T08:13:20.000Z,1011.47
2016-08-25T08:14:20.008Z,1011.45
2016-08-25T08:15:20.019Z,1011.44
2016-08-25T08:16:20.025Z,1011.41
2016-08-25T08:17:20.034Z,1011.44
2016-08-25T08:18:20.341Z,1011.45
2016-08-25T08:19:20.051Z,1011.48
2016-08-25T08:20:20.058Z,1011.4
2016-08-25T08:21:20.067Z,1011.45
2016-08-25T08:22:20.076Z,1011.43
2016-08-25T08:23:20.087Z,1011.41
2016-08-25T08:24:20.093Z,1011.4
2016-08-25T08:25:20.103Z,1011.39
2016-08-25T08:26:20.110Z,1011.48
2016-08-25T08:27:20.123Z,1011.38
2016-08-25T08:28:20.129Z,1011.37
2016-08-25T08:29:20.134Z,1011.4
2016-08-25T08:30:20.145Z,1011.41
2016-08-25T08:31:20.154Z,1011.36
2016-08-25T08:32:20.209Z,1011.36
2016-08-25T08:33:20.169Z,1011.35
2016-08-25T08:34:20.177Z,1011.33
2016-08-25T08:35:20.185Z,1011.35
2016-08-25T08:36:20.195Z,1011.4
2016-08-25T08:37:20.204Z,1011.32
2016-08-25T08:38:20.211Z,1011.38
2016-08-25T08:39:20.220Z,1011.35
2016-08-25T08:40:20.229Z,1011.39
2016-08-25T08:41:20.238Z,1011.39
2016-08-25T08:42:21.245Z,1011.37
2016-08-25T08:43:20.256Z,1011.4
2016-08-25T08:44:20.262Z,1011.4
2016-08-25T08:45:20.271Z,1011.47
2016-08-25T08:46:20.281Z,1011.43
2016-08-25T08:47:20.289Z,1011.5
2016-08-25T08:48:20.296Z,1011.43
2016-08-25T08:49:20.305Z,1011.45
2016-08-25T08:50:20.322Z,1011.4
2016-08-25T08:51:20.323Z,1011.43
2016-08-25T08:52:20.332Z,1011.37
2016-08-25T08:53:20.388Z,1011.37
2016-08-25T08:54:20.348Z,1011.4
2016-08-25T08:55:20.358Z,1011.34
2016-08-25T08:56:20.366Z,1011.39
2016-08-25T08:57:20.372Z,1011.39
2016-08-25T08:58:20.382Z,1011.34
2016-08-25T08:59:20.403Z,1011.34
2016-08-25T09:00:20.399Z,1011.33
2016-08-25T09:01:20.407Z,1011.33
2016-08-25T09:02:20.417Z,1011.34
2016-08-25T09:03:20.425Z,1011.35
2016-08-25T09:04:20.882Z,1011.3
2016-08-25T09:05:20.441Z,1011.3
2016-08-25T09:06:20.450Z,1011.29
2016-08-25T09:07:20.460Z,1011.24
2016-08-25T09:08:20.467Z,1011.22
2016-08-25T09:09:20.475Z,1011.24
2016-08-25T09:10:20.484Z,1011.25
2016-08-25T09:11:20.495Z,1011.28
2016-08-25T09:12:20.499Z,1011.26
2016-08-25T09:13:20.512Z,1011.28
2016-08-25T09:14:20.520Z,1011.24
2016-08-25T09:15:20.526Z,1011.25
2016-08-25T09:16:20.535Z,1011.2
2016-08-25T09:17:20.592Z,1011.19
2016-08-25T09:18:20.553Z,1011.2
2016-08-25T09:19:20.561Z,1011.18
2016-08-25T09:20:20.572Z,1011.13
2016-08-25T09:21:20.578Z,1011.16
2016-08-25T09:22:20.586Z,1011.12
2016-08-25T09:23:20.592Z,1011.09
2016-08-25T09:24:20.605Z,1011.15
2016-08-25T09:25:20.614Z,1011.14
2016-08-25T09:26:20.819Z,1011.12
2016-08-25T09:27:20.631Z,1011.14
2016-08-25T09:28:20.638Z,1011.14
2016-08-25T09:29:20.647Z,1011.15
2016-08-25T09:30:20.656Z,1011.13
2016-08-25T09:31:20.664Z,1011.07
2016-08-25T09:32:20.674Z,1011.03
2016-08-25T09:33:20.682Z,1011.09
2016-08-25T09:34:20.691Z,1011.06
2016-08-25T09:35:20.700Z,1011.06
2016-08-25T09:36:20.708Z,1010.99
2016-08-25T09:37:20.716Z,1011.05
2016-08-25T09:38:20.724Z,1011.06
2016-08-25T09:39:20.735Z,1011.04
2016-08-25T09:40:20.792Z,1011.03
2016-08-25T09:41:20.752Z,1011.04
2016-08-25T09:42:20.759Z,1011.01
2016-08-25T09:43:20.769Z,1011.01
2016-08-25T09:44:20.775Z,1011.02
2016-08-25T09:45:20.784Z,1010.98
2016-08-25T09:46:20.793Z,1010.97
2016-08-25T09:47:20.804Z,1011.01
2016-08-25T09:48:20.812Z,1010.98
2016-08-25T09:49:20.822Z,1010.94
2016-08-25T09:50:21.477Z,1010.94
2016-08-25T09:51:20.837Z,1011.01
2016-08-25T09:52:20.844Z,1011
2016-08-25T09:53:20.852Z,1010.97
2016-08-25T09:54:20.863Z,1010.95
2016-08-25T09:55:20.870Z,1010.99
2016-08-25T09:56:20.880Z,1010.96
2016-08-25T09:57:20.891Z,1010.96
2016-08-25T09:58:20.897Z,1010.93
2016-08-25T09:59:20.905Z,1010.93
2016-08-25T10:00:20.967Z,1010.9
2016-08-25T10:01:20.922Z,1010.88
2016-08-25T10:02:20.930Z,1010.82
2016-08-25T10:03:20.940Z,1010.86
2016-08-25T10:04:20.947Z,1010.82
2016-08-25T10:05:20.963Z,1010.77
2016-08-25T10:06:20.965Z,1010.8
2016-08-25T10:07:20.975Z,1010.77
2016-08-25T10:08:20.984Z,1010.76
2016-08-25T10:09:20.992Z,1010.77
2016-08-25T10:10:21.001Z,1010.76
2016-08-25T10:11:21.010Z,1010.73
2016-08-25T10:12:21.567Z,1010.75
2016-08-25T10:13:21.026Z,1010.75
2016-08-25T10:14:21.038Z,1010.77
2016-08-25T10:15:21.043Z,1010.79
2016-08-25T10:16:21.053Z,1010.78
2016-08-25T10:17:21.060Z,1010.73
2016-08-25T10:18:21.068Z,1010.71
2016-08-25T10:19:21.077Z,1010.72
2016-08-25T10:20:21.086Z,1010.7
2016-08-25T10:21:21.094Z,1010.73
2016-08-25T10:22:21.103Z,1010.65
2016-08-25T10:23:21.112Z,1010.7
2016-08-25T10:24:21.121Z,1010.7
2016-08-25T10:25:21.130Z,1010.7
2016-08-25T10:26:21.139Z,1010.62
2016-08-25T10:27:21.153Z,1010.68
2016-08-25T10:28:21.160Z,1010.62
2016-08-25T10:29:21.163Z,1010.63
2016-08-25T10:30:21.175Z,1010.66
2016-08-25T10:31:21.182Z,1010.63
2016-08-25T10:32:21.189Z,1010.6
2016-08-25T10:33:21.198Z,1010.61
2016-08-25T10:34:21.507Z,1010.63
2016-08-25T10:35:21.213Z,1010.63
2016-08-25T10:36:21.224Z,1010.65
2016-08-25T10:37:21.233Z,1010.63
2016-08-25T10:38:21.291Z,1010.6
2016-08-25T10:39:21.248Z,1010.6
2016-08-25T10:40:21.258Z,1010.6
2016-08-25T10:41:21.267Z,1010.62
2016-08-25T10:42:21.274Z,1010.68
2016-08-25T10:43:21.291Z,1010.63
2016-08-25T10:44:21.292Z,1010.59
2016-08-25T10:45:21.299Z,1010.62
2016-08-25T10:46:21.309Z,1010.59
2016-08-25T10:47:21.318Z,1010.58
2016-08-25T10:48:21.326Z,1010.56
2016-08-25T10:49:21.335Z,1010.58
2016-08-25T10:50:21.345Z,1010.53
2016-08-25T10:51:21.350Z,1010.53
2016-08-25T10:52:21.366Z,1010.54
2016-08-25T10:53:21.370Z,1010.52
2016-08-25T10:54:21.377Z,1010.55
2016-08-25T10:55:21.388Z,1010.51
2016-08-25T10:56:21.398Z,1010.47
2016-08-25T10:57:21.404Z,1010.47
2016-08-25T10:58:21.421Z,1010.51
2016-08-25T10:59:21.422Z,1010.45
2016-08-25T11:00:21.432Z,1010.54
2016-08-25T11:01:21.438Z,1010.5
2016-08-25T11:02:21.448Z,1010.47
2016-08-25T11:03:21.455Z,1010.46
2016-08-25T11:04:21.466Z,1010.47
2016-08-25T11:05:21.521Z,1010.44
2016-08-25T11:06:21.482Z,1010.41
2016-08-25T11:07:21.489Z,1010.43
2016-08-25T11:08:21.498Z,1010.4
2016-08-25T11:09:21.508Z,1010.42
2016-08-25T11:10:21.518Z,1010.49
2016-08-25T11:11:21.524Z,1010.42
2016-08-25T11:12:21.532Z,1010.45
2016-08-25T11:13:21.543Z,1010.46
2016-08-25T11:14:21.550Z,1010.45
2016-08-25T11:15:21.559Z,1010.41
2016-08-25T11:16:21.568Z,1010.41
2016-08-25T11:17:21.576Z,1010.44
2016-08-25T11:18:21.585Z,1010.4
2016-08-25T11:19:21.594Z,1010.4
2016-08-25T11:20:22.403Z,1010.43
2016-08-25T11:21:21.609Z,1010.43
2016-08-25T11:22:21.670Z,1010.41
2016-08-25T11:23:21.677Z,1010.37
2016-08-25T11:24:21.636Z,1010.38
2016-08-25T11:25:21.645Z,1010.38
2016-08-25T11:26:21.654Z,1010.38
2016-08-25T11:27:21.663Z,1010.35
2016-08-25T11:28:21.671Z,1010.31
2016-08-25T11:29:21.679Z,1010.27
2016-08-25T11:30:21.689Z,1010.29
2016-08-25T11:31:21.697Z,1010.28
2016-08-25T11:32:21.706Z,1010.3
2016-08-25T11:33:21.715Z,1010.29
2016-08-25T11:34:21.722Z,1010.34
2016-08-25T11:35:21.731Z,1010.31
2016-08-25T11:36:21.739Z,1010.34
2016-08-25T11:37:21.749Z,1010.3
2016-08-25T11:38:21.758Z,1010.29
2016-08-25T11:39:21.767Z,1010.28
2016-08-25T11:40:21.773Z,1010.29
2016-08-25T11:41:21.784Z,1010.29
2016-08-25T11:42:21.942Z,1010.28
2016-08-25T11:43:21.808Z,1010.27
2016-08-25T11:44:21.861Z,1010.27
2016-08-25T11:45:21.818Z,1010.34
2016-08-25T11:46:21.826Z,1010.32
2016-08-25T11:47:21.835Z,1010.32
2016-08-25T11:48:21.843Z,1010.26
2016-08-25T11:49:21.852Z,1010.24
2016-08-25T11:50:21.862Z,1010.24
2016-08-25T11:51:21.872Z,1010.3
2016-08-25T11:52:21.879Z,1010.25
2016-08-25T11:53:21.887Z,1010.24
2016-08-25T11:54:21.894Z,1010.25
2016-08-25T11:55:21.905Z,1010.18
2016-08-25T11:56:21.912Z,1010.25
2016-08-25T11:57:21.922Z,1010.26
2016-08-25T11:58:21.931Z,1010.25
2016-08-25T11:59:21.939Z,1010.25
2016-08-25T12:00:21.999Z,1010.21
2016-08-25T12:01:22.105Z,1010.23
2016-08-25T12:02:21.965Z,1010.12
2016-08-25T12:03:21.973Z,1010.14
2016-08-25T12:04:21.981Z,1010.11
2016-08-25T12:05:21.990Z,1010.11
2016-08-25T12:06:23.110Z,1010.02
2016-08-25T12:07:22.006Z,1010.04
2016-08-25T12:08:22.017Z,1010.01